Moore, Montana
Current Conditions -  °F | °C
As of 5:54 AM on Tuesday 21 Oct 2014 (Local Time) from KLWT Reporting Station
Clear Clear  
Wind Chill: 53°   Ceiling: Unl
Heat Index: 53°   Visibility: 10mi
Dew Point: 36°   Wind: 3mph
Humidity: 52%   Direction: NA
Pressure: 29.73"   Gusts: NA
Location:  46.98°N, 109.7°W
Report Text: KLWT 211154Z AUTO VRB03KT 10SM CLR 12/02 A2973 RMK AO2 SLP038 T01170022 10156 20083 56007
Loading
Personal Weather Stations






























Interactive Weather Map
Tropical Storm Tracking
New forecast layout! Learn more

10-Day Weather Forecast

Advertisements
Track Severe Weather on mobile